Time;durP1;ratioP1;P1;durP2;ratioP2;P2;SDS_P1;SDS_P2;PMS_P1;PMS_P2;Temp;Humidity;BMP_temperature;BMP_pressure;BME280_temperature;BME280_humidity;BME280_pressure;Samples;Min_cycle;Max_cycle;Signal;HPM_P1;HPM_P2
2023/07/16 00:00:36;;;;;;;4.93;2.80;;;20.90;99.90;;;;;;5034257;28;20450;-57
2023/07/16 00:03:03;;;;;;;3.30;2.70;;;20.90;99.90;;;;;;5033835;28;20447;-57
2023/07/16 00:05:30;;;;;;;2.97;2.23;;;20.90;99.90;;;;;;5033833;28;20547;-57
2023/07/16 00:07:58;;;;;;;3.00;1.90;;;20.80;99.90;;;;;;5033862;28;20454;-57
2023/07/16 00:10:24;;;;;;;4.80;2.50;;;20.80;99.90;;;;;;5033679;28;20818;-57
2023/07/16 00:12:51;;;;;;;3.00;2.07;;;20.80;99.90;;;;;;5034066;28;20464;-56
2023/07/16 00:15:18;;;;;;;3.53;1.60;;;20.70;99.90;;;;;;5033824;28;20450;-57
2023/07/16 00:17:45;;;;;;;2.67;1.80;;;20.70;99.90;;;;;;5033846;28;21017;-56
2023/07/16 00:20:12;;;;;;;2.70;2.10;;;20.70;99.90;;;;;;5033279;28;20451;-57
2023/07/16 00:22:39;;;;;;;3.43;2.23;;;20.70;99.90;;;;;;5034014;28;20480;-59
2023/07/16 00:25:08;;;;;;;2.70;2.00;;;20.70;99.90;;;;;;5033458;28;20494;-57
2023/07/16 00:27:35;;;;;;;3.20;2.13;;;20.60;99.90;;;;;;5035301;28;20443;-58
2023/07/16 00:30:02;;;;;;;2.70;1.90;;;20.60;99.90;;;;;;5037600;28;20444;-57
2023/07/16 00:32:29;;;;;;;3.03;2.03;;;20.60;99.90;;;;;;5037462;28;20475;-59
2023/07/16 00:34:56;;;;;;;4.93;2.23;;;20.60;99.90;;;;;;5037248;28;20458;-58
2023/07/16 00:37:23;;;;;;;2.93;1.97;;;20.60;99.90;;;;;;5037817;28;20486;-57
2023/07/16 00:39:50;;;;;;;1.90;1.70;;;20.50;99.90;;;;;;5037073;28;20458;-58
2023/07/16 00:42:18;;;;;;;3.80;1.93;;;20.50;99.90;;;;;;5037233;28;20494;-56
2023/07/16 00:44:45;;;;;;;3.67;1.90;;;20.50;99.90;;;;;;5036854;28;20442;-57
2023/07/16 00:47:13;;;;;;;2.60;2.40;;;20.50;99.90;;;;;;5036811;28;20534;-56
2023/07/16 00:49:40;;;;;;;2.60;2.10;;;20.50;99.90;;;;;;5037016;28;20442;-58
2023/07/16 00:52:12;;;;;;;3.83;3.00;;;20.50;99.90;;;;;;5036714;28;20459;-57
2023/07/16 00:54:39;;;;;;;5.00;3.10;;;20.50;99.90;;;;;;5036977;28;20432;-56
2023/07/16 00:57:07;;;;;;;2.80;2.07;;;20.40;99.90;;;;;;5037045;28;20864;-58
2023/07/16 00:59:36;;;;;;;4.60;2.13;;;20.40;99.90;;;;;;5037083;28;20447;-57
2023/07/16 01:02:03;;;;;;;3.70;2.20;;;20.40;99.90;;;;;;5036912;28;20464;-56
2023/07/16 01:04:30;;;;;;;2.60;2.13;;;20.30;99.90;;;;;;5036614;28;20442;-57
2023/07/16 01:07:02;;;;;;;2.27;2.07;;;20.30;99.90;;;;;;5035901;28;20954;-57
2023/07/16 01:09:29;;;;;;;2.23;1.80;;;20.30;99.90;;;;;;5036996;28;20431;-58
2023/07/16 01:11:58;;;;;;;3.40;1.97;;;20.30;99.90;;;;;;5035848;28;20528;-57
2023/07/16 01:14:25;;;;;;;2.90;2.47;;;20.30;99.90;;;;;;5035997;28;20451;-57
2023/07/16 01:16:58;;;;;;;2.60;1.83;;;20.40;99.90;;;;;;5036197;28;20571;-56
2023/07/16 01:19:25;;;;;;;2.37;2.17;;;20.30;99.90;;;;;;5036098;28;20443;-56
2023/07/16 01:22:03;;;;;;;2.90;2.00;;;20.30;99.90;;;;;;5035893;28;20983;-58
2023/07/16 01:24:54;;;;;;;3.33;2.27;;;20.40;99.90;;;;;;5036585;28;20435;-58
2023/07/16 01:27:35;;;;;;;5.00;3.43;;;20.30;99.90;;;;;;5035708;28;20772;-58
2023/07/16 01:30:05;;;;;;;5.90;3.10;;;20.40;99.90;;;;;;5035911;28;20427;-57
2023/07/16 01:32:33;;;;;;;4.13;3.00;;;20.30;99.90;;;;;;5036619;28;20478;-57
2023/07/16 01:35:00;;;;;;;4.67;2.57;;;20.30;99.90;;;;;;5035343;28;20974;-58
2023/07/16 01:37:27;;;;;;;2.90;2.37;;;20.30;99.90;;;;;;5035579;28;20478;-58
2023/07/16 01:39:55;;;;;;;3.07;2.50;;;20.30;99.90;;;;;;5035028;28;20444;-58
2023/07/16 01:42:21;;;;;;;2.70;2.00;;;20.30;99.90;;;;;;5035631;28;21059;-57
2023/07/16 01:44:48;;;;;;;2.40;2.13;;;20.30;99.90;;;;;;5036006;28;20815;-57
2023/07/16 01:47:22;;;;;;;6.83;2.53;;;20.30;99.90;;;;;;5035837;28;20827;-58
2023/07/16 01:49:49;;;;;;;2.33;2.13;;;20.30;99.90;;;;;;5036614;28;20908;-58
2023/07/16 01:52:16;;;;;;;3.47;2.00;;;20.40;99.90;;;;;;5036683;28;20819;-58
2023/07/16 01:54:43;;;;;;;2.27;2.07;;;20.40;99.90;;;;;;5036846;28;20451;-57
2023/07/16 01:57:09;;;;;;;2.80;1.87;;;20.40;99.90;;;;;;5036299;28;20484;-58
2023/07/16 01:59:36;;;;;;;2.63;1.80;;;20.30;99.90;;;;;;5036563;28;20443;-57
2023/07/16 02:02:03;;;;;;;3.10;1.80;;;20.30;99.90;;;;;;5035532;28;20561;-58
2023/07/16 02:04:31;;;;;;;1.60;1.50;;;20.30;99.90;;;;;;5035635;28;20443;-58
2023/07/16 02:06:58;;;;;;;1.87;1.70;;;20.30;99.90;;;;;;5035253;28;20443;-58
2023/07/16 02:09:26;;;;;;;3.13;1.90;;;20.30;99.90;;;;;;5035231;28;20452;-58
2023/07/16 02:11:52;;;;;;;3.90;2.03;;;20.30;99.90;;;;;;5035485;28;20482;-57
2023/07/16 02:14:19;;;;;;;3.40;1.93;;;20.30;99.90;;;;;;5035329;28;20866;-57
2023/07/16 02:16:46;;;;;;;1.80;1.60;;;20.30;99.90;;;;;;5035120;28;20455;-56
2023/07/16 02:19:13;;;;;;;2.23;2.03;;;20.30;99.90;;;;;;5035192;28;20458;-58
2023/07/16 02:21:41;;;;;;;4.20;1.73;;;20.20;99.90;;;;;;5035110;28;20984;-57
2023/07/16 02:24:08;;;;;;;3.00;2.30;;;20.20;99.90;;;;;;5034956;28;20455;-57
2023/07/16 02:26:34;;;;;;;2.33;2.13;;;20.30;99.90;;;;;;5034870;28;20453;-57
2023/07/16 02:29:01;;;;;;;3.80;1.70;;;20.30;99.90;;;;;;5035085;28;20444;-57
2023/07/16 02:31:28;;;;;;;3.17;1.80;;;20.20;99.90;;;;;;5034773;28;20472;-58
2023/07/16 02:33:55;;;;;;;3.20;1.90;;;20.20;99.90;;;;;;5034774;28;20455;-58
2023/07/16 02:36:21;;;;;;;2.97;1.83;;;20.10;99.90;;;;;;5034620;28;20443;-57
2023/07/16 02:38:49;;;;;;;3.63;2.03;;;20.10;99.90;;;;;;5034970;28;20494;-57
2023/07/16 02:41:16;;;;;;;3.73;1.70;;;20.10;99.90;;;;;;5034378;28;20471;-57
2023/07/16 02:43:43;;;;;;;2.80;2.20;;;20.10;99.90;;;;;;5034480;28;20470;-57
2023/07/16 02:46:10;;;;;;;2.10;1.63;;;20.00;99.90;;;;;;5034331;28;20448;-57
2023/07/16 02:48:36;;;;;;;2.03;1.30;;;20.00;99.90;;;;;;5034334;28;20440;-57
2023/07/16 02:51:03;;;;;;;5.90;2.50;;;20.00;99.90;;;;;;5033138;28;20464;-57
2023/07/16 02:53:30;;;;;;;3.13;1.90;;;20.00;99.90;;;;;;5034180;28;20532;-57
2023/07/16 02:55:58;;;;;;;3.50;1.63;;;20.00;99.90;;;;;;5033982;28;20443;-57
2023/07/16 02:58:25;;;;;;;3.90;1.60;;;19.90;99.90;;;;;;5033868;28;20478;-57
2023/07/16 03:00:52;;;;;;;3.37;2.00;;;19.90;99.90;;;;;;5034277;28;20463;-57
2023/07/16 03:03:18;;;;;;;2.10;1.90;;;19.90;99.90;;;;;;5034286;28;20443;-57
2023/07/16 03:05:45;;;;;;;2.50;1.53;;;19.90;99.90;;;;;;5034279;28;20449;-59
2023/07/16 03:08:12;;;;;;;2.40;1.73;;;19.90;99.90;;;;;;5033928;28;20529;-58
2023/07/16 03:10:39;;;;;;;2.20;2.00;;;19.90;99.90;;;;;;5033785;28;20469;-58
2023/07/16 03:13:07;;;;;;;3.53;1.70;;;19.80;99.90;;;;;;5034074;28;20440;-57
2023/07/16 03:15:33;;;;;;;3.33;2.17;;;19.80;99.90;;;;;;5034194;28;20470;-58
2023/07/16 03:18:00;;;;;;;2.07;1.87;;;19.70;99.90;;;;;;5034007;28;20845;-58
2023/07/16 03:20:27;;;;;;;4.57;2.47;;;19.70;99.90;;;;;;5033789;28;20805;-58
2023/07/16 03:22:54;;;;;;;2.47;1.70;;;19.70;99.90;;;;;;5033744;28;20453;-57
2023/07/16 03:25:20;;;;;;;2.40;1.87;;;19.70;99.90;;;;;;5033308;28;20952;-58
2023/07/16 03:27:47;;;;;;;4.00;2.47;;;19.70;99.90;;;;;;5033393;28;20949;-58
2023/07/16 03:30:15;;;;;;;6.13;2.67;;;19.70;99.90;;;;;;5033315;28;20457;-57
2023/07/16 03:32:42;;;;;;;2.43;2.23;;;19.60;99.90;;;;;;5033385;28;20470;-58
2023/07/16 03:35:10;;;;;;;2.90;2.20;;;19.60;99.90;;;;;;5033067;28;20457;-58
2023/07/16 03:37:36;;;;;;;2.40;2.20;;;19.60;99.90;;;;;;5033332;28;20484;-58
2023/07/16 03:40:14;;;;;;;1.93;1.50;;;19.50;99.90;;;;;;5033722;28;20449;-58
2023/07/16 03:42:41;;;;;;;2.77;2.07;;;19.50;99.90;;;;;;5033356;28;20952;-57
2023/07/16 03:45:10;;;;;;;4.13;2.50;;;19.40;99.90;;;;;;5033066;28;20455;-57
2023/07/16 03:47:38;;;;;;;2.10;1.90;;;19.40;99.90;;;;;;5033181;28;20884;-57
2023/07/16 03:50:06;;;;;;;2.87;2.40;;;19.40;99.90;;;;;;5033207;28;20971;-57
2023/07/16 03:52:33;;;;;;;2.10;1.90;;;19.40;99.90;;;;;;5033421;28;20551;-58
2023/07/16 03:55:00;;;;;;;3.07;2.33;;;19.40;99.90;;;;;;5032962;28;20450;-57
2023/07/16 03:57:28;;;;;;;2.47;2.27;;;19.40;99.90;;;;;;5033192;28;21010;-56
2023/07/16 03:59:55;;;;;;;3.40;2.20;;;19.30;99.90;;;;;;5033385;28;20450;-56
2023/07/16 04:02:22;;;;;;;3.37;2.50;;;19.30;99.90;;;;;;5033044;28;20474;-57
2023/07/16 04:04:50;;;;;;;3.60;1.90;;;19.40;99.90;;;;;;5033227;28;20822;-60
2023/07/16 04:07:18;;;;;;;3.87;2.50;;;19.40;99.90;;;;;;5033533;28;20480;-57
2023/07/16 04:11:59;;;;;;;3.37;2.80;;;19.40;99.90;;;;;;5090681;28;20972;-56
2023/07/16 04:14:26;;;;;;;3.20;2.90;;;19.40;99.90;;;;;;5090412;28;20443;-57
2023/07/16 04:16:53;;;;;;;2.77;1.90;;;19.40;99.90;;;;;;5090611;28;20452;-57
2023/07/16 04:19:19;;;;;;;2.30;2.10;;;19.50;99.90;;;;;;5091183;28;20453;-53
2023/07/16 04:21:46;;;;;;;3.27;2.03;;;19.40;99.90;;;;;;5090035;28;20983;-56
2023/07/16 04:24:13;;;;;;;2.60;1.63;;;19.40;99.90;;;;;;5090267;28;20445;-56
2023/07/16 04:26:40;;;;;;;2.60;2.13;;;19.50;99.90;;;;;;5091023;28;20445;-57
2023/07/16 04:29:08;;;;;;;2.50;2.20;;;19.60;99.90;;;;;;5090146;28;20821;-57
2023/07/16 04:31:35;;;;;;;2.47;1.90;;;20.00;99.90;;;;;;5090144;28;20492;-57
2023/07/16 04:34:02;;;;;;;2.80;2.20;;;20.50;99.90;;;;;;5090458;28;20457;-57
2023/07/16 04:36:28;;;;;;;3.67;1.90;;;20.90;99.90;;;;;;5090259;28;20443;-57
2023/07/16 04:38:55;;;;;;;2.73;1.77;;;21.40;99.90;;;;;;5090001;28;20443;-57
2023/07/16 04:41:22;;;;;;;6.20;2.30;;;21.80;99.90;;;;;;5090174;28;20465;-57
2023/07/16 04:43:49;;;;;;;2.57;2.37;;;22.20;98.10;;;;;;5090187;28;20438;-57
2023/07/16 04:46:17;;;;;;;3.47;2.47;;;22.40;96.50;;;;;;5089407;28;20451;-56
2023/07/16 04:48:44;;;;;;;3.70;2.37;;;22.20;95.10;;;;;;5090061;28;20496;-57
2023/07/16 04:51:10;;;;;;;5.00;2.20;;;21.90;95.20;;;;;;5089795;28;20482;-57
2023/07/16 04:53:37;;;;;;;2.90;2.20;;;21.70;95.80;;;;;;5090326;28;20461;-55
2023/07/16 04:56:04;;;;;;;4.63;2.33;;;21.80;96.20;;;;;;5090137;28;20438;-56
2023/07/16 04:58:31;;;;;;;2.30;2.10;;;21.90;95.70;;;;;;5091107;28;20874;-57
2023/07/16 05:00:58;;;;;;;3.40;2.40;;;22.20;94.70;;;;;;5090401;28;20458;-56
2023/07/16 05:03:26;;;;;;;2.10;1.80;;;22.40;93.80;;;;;;5092305;28;20438;-57
2023/07/16 05:05:53;;;;;;;2.30;2.10;;;22.60;93.00;;;;;;5093198;28;20466;-58
2023/07/16 05:08:19;;;;;;;2.47;1.77;;;22.80;91.90;;;;;;5091990;28;20438;-57
2023/07/16 05:10:46;;;;;;;3.47;2.33;;;22.90;91.20;;;;;;5091258;28;20493;-57
2023/07/16 05:13:15;;;;;;;3.50;2.00;;;23.20;90.40;;;;;;5103865;22;20484;-56
2023/07/16 05:15:44;;;;;;;2.70;2.00;;;23.30;89.00;;;;;;5069162;28;20454;-58
2023/07/16 05:18:11;;;;;;;8.00;1.97;;;23.40;88.00;;;;;;5069109;28;20793;-58
2023/07/16 05:20:39;;;;;;;3.70;2.20;;;23.70;85.90;;;;;;5069045;28;20431;-59
2023/07/16 05:23:06;;;;;;;2.90;1.90;;;23.80;84.50;;;;;;5056941;28;20464;-58
2023/07/16 05:25:32;;;;;;;3.87;1.70;;;23.90;83.20;;;;;;5055887;28;20442;-59
2023/07/16 05:27:59;;;;;;;3.20;1.77;;;24.10;81.70;;;;;;5056170;28;20450;-59
2023/07/16 05:30:26;;;;;;;2.57;2.10;;;24.20;80.10;;;;;;5057041;28;20483;-59
2023/07/16 05:32:53;;;;;;;3.37;1.90;;;24.30;78.80;;;;;;5055984;28;20468;-58
2023/07/16 05:35:19;;;;;;;2.77;2.10;;;24.50;76.90;;;;;;5056479;28;20444;-56
2023/07/16 05:37:48;;;;;;;2.53;1.60;;;24.40;75.80;;;;;;5055391;28;20832;-58
2023/07/16 05:40:14;;;;;;;3.10;1.67;;;24.30;74.70;;;;;;5055483;28;20828;-58
2023/07/16 05:42:41;;;;;;;3.87;1.83;;;24.10;74.10;;;;;;5055586;28;20469;-60
2023/07/16 05:45:08;;;;;;;2.30;1.53;;;23.80;73.80;;;;;;5055172;28;20938;-59
2023/07/16 05:47:35;;;;;;;2.17;1.50;;;23.60;74.60;;;;;;5055060;28;20976;-59
2023/07/16 05:50:02;;;;;;;3.63;1.40;;;23.40;74.30;;;;;;5055224;28;20452;-60
2023/07/16 05:52:29;;;;;;;3.30;1.70;;;23.40;74.40;;;;;;5054883;28;20949;-59
2023/07/16 05:54:57;;;;;;;5.60;1.80;;;23.50;74.10;;;;;;5055372;28;20451;-58
2023/07/16 05:57:24;;;;;;;2.50;1.20;;;23.60;73.30;;;;;;5055386;28;20455;-58
2023/07/16 05:59:51;;;;;;;2.10;1.63;;;23.70;72.70;;;;;;5055602;28;20720;-59
2023/07/16 06:02:18;;;;;;;3.10;1.33;;;23.70;71.80;;;;;;5055302;28;20445;-59
2023/07/16 06:04:45;;;;;;;2.73;2.00;;;23.70;71.60;;;;;;5054854;28;20930;-60
2023/07/16 06:07:13;;;;;;;2.23;1.73;;;23.70;71.70;;;;;;5054508;28;20960;-59
2023/07/16 06:09:39;;;;;;;2.73;1.67;;;23.80;71.50;;;;;;5054736;28;20448;-59
2023/07/16 06:12:08;;;;;;;2.83;1.70;;;23.80;71.00;;;;;;5054463;28;20491;-58
2023/07/16 06:14:35;;;;;;;4.30;1.80;;;23.80;70.90;;;;;;5054510;28;20937;-59
2023/07/16 06:17:01;;;;;;;3.43;1.90;;;23.70;70.50;;;;;;5054788;28;20950;-59
2023/07/16 06:19:29;;;;;;;3.60;2.07;;;23.70;70.50;;;;;;5055031;28;20808;-59
2023/07/16 06:21:55;;;;;;;2.97;2.00;;;23.70;70.50;;;;;;5054548;28;20455;-58
2023/07/16 06:24:22;;;;;;;3.33;1.43;;;23.70;70.10;;;;;;5054885;28;20460;-58
2023/07/16 06:26:49;;;;;;;3.57;1.93;;;23.60;69.40;;;;;;5055883;28;20474;-58
2023/07/16 06:29:17;;;;;;;3.30;1.87;;;23.60;70.00;;;;;;5055322;28;20548;-58
2023/07/16 06:31:44;;;;;;;3.03;2.10;;;23.60;69.00;;;;;;5055974;28;20479;-59
2023/07/16 06:34:11;;;;;;;6.43;2.27;;;23.60;68.20;;;;;;5054827;28;20468;-59
2023/07/16 06:36:38;;;;;;;3.40;2.10;;;23.60;68.00;;;;;;5055020;28;20448;-58
2023/07/16 06:39:05;;;;;;;3.97;2.00;;;23.60;67.50;;;;;;5054295;28;20451;-57
2023/07/16 06:41:32;;;;;;;2.70;2.20;;;23.60;66.70;;;;;;5054177;28;20444;-57
2023/07/16 06:43:59;;;;;;;2.73;1.77;;;23.50;66.40;;;;;;5053770;28;20547;-57
2023/07/16 06:46:27;;;;;;;4.10;2.07;;;23.20;66.70;;;;;;5053981;28;20459;-58
2023/07/16 06:48:53;;;;;;;2.60;2.10;;;22.80;65.90;;;;;;5053903;28;20448;-59
2023/07/16 06:51:20;;;;;;;3.20;2.13;;;22.60;66.70;;;;;;5053847;28;20480;-57
2023/07/16 06:53:47;;;;;;;3.40;2.30;;;22.60;66.90;;;;;;5053889;28;20461;-58
2023/07/16 06:56:14;;;;;;;4.23;2.33;;;22.60;66.70;;;;;;5054053;28;20444;-57
2023/07/16 06:58:41;;;;;;;3.00;2.13;;;22.80;66.50;;;;;;5053564;28;20807;-59
2023/07/16 07:01:08;;;;;;;3.70;2.20;;;23.10;66.00;;;;;;5054039;28;20451;-58
2023/07/16 07:03:36;;;;;;;4.13;2.60;;;23.30;65.10;;;;;;5053574;28;20464;-57
2023/07/16 07:06:04;;;;;;;5.47;2.20;;;23.50;64.50;;;;;;5054342;28;20841;-58
2023/07/16 07:08:31;;;;;;;2.63;1.90;;;23.60;63.90;;;;;;5053397;28;20459;-57
2023/07/16 07:10:58;;;;;;;2.60;2.37;;;23.70;63.50;;;;;;5054654;28;20480;-57
2023/07/16 07:13:25;;;;;;;2.63;2.30;;;23.90;62.80;;;;;;5054453;28;20989;-59
2023/07/16 07:15:52;;;;;;;3.23;2.00;;;24.10;62.10;;;;;;5054525;28;20487;-57
2023/07/16 07:18:18;;;;;;;4.80;2.10;;;24.30;60.80;;;;;;5053546;28;20452;-58
2023/07/16 07:20:48;;;;;;;3.97;2.10;;;24.40;59.90;;;;;;5053575;28;20464;-57
2023/07/16 07:23:16;;;;;;;3.83;2.07;;;24.40;59.10;;;;;;5053786;28;20462;-59
2023/07/16 07:25:43;;;;;;;4.20;2.03;;;24.30;58.00;;;;;;5053437;28;20444;-57
2023/07/16 07:28:09;;;;;;;3.33;2.23;;;23.90;57.00;;;;;;5052936;28;20449;-57
2023/07/16 07:30:37;;;;;;;5.00;2.20;;;23.50;56.60;;;;;;5053216;28;20443;-53
2023/07/16 07:33:04;;;;;;;3.73;2.13;;;23.10;56.40;;;;;;5053487;28;20474;-55
2023/07/16 07:35:31;;;;;;;7.47;2.97;;;23.00;56.20;;;;;;5053629;28;20445;-56
2023/07/16 07:37:59;;;;;;;6.03;2.73;;;23.10;55.60;;;;;;5053134;28;20444;-56
2023/07/16 07:40:27;;;;;;;6.50;2.60;;;23.20;55.00;;;;;;5053267;28;20445;-56
2023/07/16 07:42:54;;;;;;;3.40;2.57;;;23.30;54.00;;;;;;5052663;28;20966;-56
2023/07/16 07:45:21;;;;;;;4.90;2.30;;;23.50;53.50;;;;;;5052913;28;20437;-56
2023/07/16 07:47:48;;;;;;;7.17;2.60;;;23.60;52.80;;;;;;5052933;28;20444;-56
2023/07/16 07:50:15;;;;;;;5.10;2.30;;;23.70;52.40;;;;;;5053379;28;20448;-55
2023/07/16 07:52:42;;;;;;;3.13;2.63;;;23.80;51.70;;;;;;5052605;28;20828;-56
2023/07/16 07:55:10;;;;;;;7.50;2.90;;;23.80;50.50;;;;;;5052886;28;20459;-56
2023/07/16 07:57:37;;;;;;;2.57;2.00;;;23.90;50.10;;;;;;5052522;28;20444;-57
2023/07/16 08:00:05;;;;;;;3.77;3.10;;;23.90;49.20;;;;;;5052632;28;20444;-56
2023/07/16 08:02:31;;;;;;;4.40;2.67;;;23.90;48.90;;;;;;5052704;28;20539;-56
2023/07/16 08:04:58;;;;;;;4.10;2.67;;;23.90;48.20;;;;;;5052941;28;20440;-56
2023/07/16 08:07:25;;;;;;;4.40;2.80;;;23.90;48.20;;;;;;5052662;28;20452;-56
2023/07/16 08:09:52;;;;;;;3.43;2.53;;;23.80;48.00;;;;;;5052589;28;20566;-57
2023/07/16 08:12:20;;;;;;;3.03;2.40;;;23.80;47.90;;;;;;5052176;28;20496;-57
2023/07/16 08:14:49;;;;;;;4.43;2.30;;;23.90;48.00;;;;;;5052273;28;20906;-56
2023/07/16 08:17:16;;;;;;;6.33;2.87;;;24.00;48.00;;;;;;5052599;28;20467;-56
2023/07/16 08:19:42;;;;;;;5.77;2.50;;;24.10;47.90;;;;;;5052642;28;20451;-55
2023/07/16 08:22:09;;;;;;;5.00;3.10;;;24.30;47.80;;;;;;5052789;28;20519;-56
2023/07/16 08:24:36;;;;;;;3.60;2.67;;;24.50;47.60;;;;;;5052646;28;20484;-57
2023/07/16 08:27:03;;;;;;;6.10;2.60;;;24.60;47.50;;;;;;5052797;28;20444;-55
2023/07/16 08:29:32;;;;;;;4.57;2.57;;;24.80;47.30;;;;;;5053989;28;20523;-57
2023/07/16 08:31:58;;;;;;;6.30;2.63;;;24.90;46.80;;;;;;5052727;28;20491;-57
2023/07/16 08:34:25;;;;;;;3.80;2.37;;;24.90;46.40;;;;;;5052655;28;20448;-55
2023/07/16 08:36:52;;;;;;;6.20;2.93;;;24.90;46.50;;;;;;5052883;28;20441;-55
2023/07/16 08:39:20;;;;;;;4.70;2.53;;;24.90;46.50;;;;;;5052748;28;20459;-57
2023/07/16 08:41:47;;;;;;;3.07;2.47;;;25.10;46.50;;;;;;5052587;28;20500;-56
2023/07/16 08:44:14;;;;;;;4.57;2.47;;;25.20;46.40;;;;;;5052281;28;20467;-56
2023/07/16 08:46:42;;;;;;;5.90;2.70;;;25.40;46.00;;;;;;5052044;28;20934;-57
2023/07/16 08:49:11;;;;;;;3.50;2.37;;;25.60;45.60;;;;;;5052368;28;20449;-56
2023/07/16 08:51:39;;;;;;;4.57;2.33;;;25.70;45.30;;;;;;5052552;28;20491;-56
2023/07/16 08:54:06;;;;;;;2.80;2.60;;;25.80;44.90;;;;;;5052705;28;20468;-57
2023/07/16 08:56:33;;;;;;;6.90;2.63;;;25.80;44.40;;;;;;5052276;28;20452;-55
2023/07/16 08:59:00;;;;;;;4.30;2.40;;;25.80;44.40;;;;;;5056727;28;20456;-55
2023/07/16 09:01:28;;;;;;;3.23;2.47;;;25.70;44.30;;;;;;5055806;28;20456;-56
2023/07/16 09:03:57;;;;;;;7.67;2.60;;;25.70;44.20;;;;;;5055931;28;20474;-56
2023/07/16 09:06:24;;;;;;;5.87;2.50;;;25.70;44.10;;;;;;5056036;28;20453;-55
2023/07/16 09:08:51;;;;;;;3.67;2.20;;;25.80;44.00;;;;;;5056132;28;20817;-57
2023/07/16 09:11:21;;;;;;;6.20;2.80;;;25.90;43.80;;;;;;5055925;28;20444;-54
2023/07/16 09:13:48;;;;;;;2.80;2.00;;;25.80;43.70;;;;;;5055537;28;20487;-57
2023/07/16 09:16:16;;;;;;;4.00;2.40;;;25.70;43.50;;;;;;5055835;28;20823;-56
2023/07/16 09:18:43;;;;;;;3.03;2.10;;;25.60;43.20;;;;;;5056192;28;20539;-56
2023/07/16 09:21:12;;;;;;;3.23;2.53;;;25.60;43.10;;;;;;5055967;28;20772;-57
2023/07/16 09:23:40;;;;;;;5.17;2.53;;;25.60;43.00;;;;;;5055679;28;20469;-56
2023/07/16 09:26:07;;;;;;;4.37;2.97;;;25.70;42.70;;;;;;5055942;28;20870;-56
2023/07/16 09:28:35;;;;;;;4.93;2.43;;;25.90;42.50;;;;;;5056065;28;20459;-56
2023/07/16 09:31:06;;;;;;;3.73;2.60;;;26.20;42.40;;;;;;5056426;28;20470;-57
2023/07/16 09:33:33;;;;;;;3.00;2.13;;;26.30;42.00;;;;;;5055854;28;20488;-55
2023/07/16 09:35:59;;;;;;;3.17;2.20;;;26.30;41.90;;;;;;5055720;28;20946;-57
2023/07/16 09:38:29;;;;;;;4.00;2.40;;;26.30;41.60;;;;;;5055794;28;20448;-56
2023/07/16 09:40:57;;;;;;;3.57;2.07;;;26.20;41.70;;;;;;5055474;28;20822;-56
2023/07/16 09:43:24;;;;;;;5.10;2.30;;;26.00;41.60;;;;;;5055112;28;20465;-57
2023/07/16 09:45:51;;;;;;;4.23;2.17;;;26.00;41.70;;;;;;5055312;28;20972;-57
2023/07/16 09:48:18;;;;;;;4.77;2.43;;;26.10;41.70;;;;;;5055245;28;20452;-57
2023/07/16 09:50:50;;;;;;;3.43;2.10;;;26.40;41.30;;;;;;5055105;28;20475;-55
2023/07/16 09:53:19;;;;;;;5.17;2.40;;;26.50;41.30;;;;;;5055025;28;21020;-55
2023/07/16 09:55:48;;;;;;;5.60;2.63;;;26.50;41.10;;;;;;5055527;28;20452;-57
2023/07/16 09:58:19;;;;;;;2.90;2.13;;;26.40;41.30;;;;;;5055424;28;20441;-56
2023/07/16 10:00:48;;;;;;;5.40;2.07;;;26.40;41.70;;;;;;5055579;28;20439;-56
2023/07/16 10:03:17;;;;;;;6.80;3.43;;;26.30;41.00;;;;;;5055148;28;20467;-57
2023/07/16 10:05:44;;;;;;;3.43;2.00;;;26.20;41.20;;;;;;5055309;28;20556;-57
2023/07/16 10:08:17;;;;;;;4.57;2.77;;;26.00;41.10;;;;;;5059120;28;20496;-57
2023/07/16 10:10:45;;;;;;;3.77;1.93;;;25.90;41.40;;;;;;5055286;28;20437;-58
2023/07/16 10:13:14;;;;;;;4.83;2.93;;;25.90;41.60;;;;;;5054793;28;21052;-56
2023/07/16 10:15:52;;;;;;;3.67;2.43;;;25.80;41.80;;;;;;5055334;28;20445;-57
2023/07/16 10:18:24;;;;;;;3.83;2.40;;;25.70;42.10;;;;;;5055339;28;20439;-57
2023/07/16 10:20:53;;;;;;;3.87;3.00;;;25.70;42.90;;;;;;5055988;28;20424;-57
2023/07/16 10:23:20;;;;;;;3.20;2.07;;;25.80;42.40;;;;;;5056206;28;20453;-57
2023/07/16 10:25:59;;;;;;;3.43;2.37;;;25.90;42.40;;;;;;5055432;28;20953;-56
2023/07/16 10:28:28;;;;;;;3.17;2.30;;;25.90;41.60;;;;;;5061038;28;20853;-57
2023/07/16 10:30:55;;;;;;;2.17;1.97;;;25.70;41.40;;;;;;5055221;28;20483;-56
2023/07/16 10:33:21;;;;;;;3.20;2.50;;;25.80;41.60;;;;;;5055082;28;20500;-57
2023/07/16 10:35:48;;;;;;;4.23;2.30;;;26.00;41.40;;;;;;5055500;28;20456;-56
2023/07/16 10:38:15;;;;;;;4.23;2.43;;;26.10;40.90;;;;;;5055585;28;20539;-55
2023/07/16 10:40:43;;;;;;;5.00;2.40;;;26.20;40.80;;;;;;5055211;28;20444;-55
2023/07/16 10:43:10;;;;;;;3.67;2.83;;;26.30;41.30;;;;;;5055215;28;20464;-56
2023/07/16 10:45:39;;;;;;;3.00;2.43;;;26.50;40.60;;;;;;5054238;28;20826;-57
2023/07/16 10:48:05;;;;;;;6.10;2.67;;;26.60;40.00;;;;;;5054363;28;20460;-58
2023/07/16 10:50:33;;;;;;;3.50;2.27;;;26.60;39.80;;;;;;5054566;28;20447;-57
2023/07/16 10:53:01;;;;;;;5.23;2.70;;;26.60;39.20;;;;;;5054068;28;20484;-58
2023/07/16 10:55:29;;;;;;;5.90;3.00;;;26.50;39.10;;;;;;5054242;28;20487;-57
2023/07/16 10:57:57;;;;;;;5.63;2.63;;;26.70;39.00;;;;;;5054086;28;20536;-55
2023/07/16 11:00:24;;;;;;;5.43;2.93;;;26.80;39.00;;;;;;5054391;28;20968;-58
2023/07/16 11:02:52;;;;;;;4.97;2.40;;;26.90;39.00;;;;;;5054605;28;20465;-56
2023/07/16 11:05:20;;;;;;;3.90;3.13;;;27.00;39.00;;;;;;5054563;28;20455;-57
2023/07/16 11:07:48;;;;;;;3.13;2.83;;;27.10;38.80;;;;;;5054465;28;20459;-58
2023/07/16 11:10:17;;;;;;;3.70;2.97;;;27.10;38.70;;;;;;5055275;28;20444;-58
2023/07/16 11:12:44;;;;;;;3.50;2.67;;;27.00;38.50;;;;;;5054951;28;21016;-57
2023/07/16 11:15:11;;;;;;;3.40;2.83;;;27.00;38.20;;;;;;5054434;28;20448;-58
2023/07/16 11:17:40;;;;;;;4.07;2.80;;;26.90;38.20;;;;;;5056283;28;20449;-57
2023/07/16 11:20:10;;;;;;;2.90;2.60;;;27.00;38.20;;;;;;5053883;28;20445;-58
2023/07/16 11:22:39;;;;;;;4.40;3.00;;;26.90;38.00;;;;;;5054316;28;20540;-57
2023/07/16 11:25:12;;;;;;;3.03;2.30;;;26.80;38.10;;;;;;5053631;28;20452;-58
2023/07/16 11:27:42;;;;;;;2.87;2.23;;;26.90;37.90;;;;;;5055615;28;20540;-57
2023/07/16 11:30:09;;;;;;;3.03;2.73;;;27.20;37.60;;;;;;5055599;28;20456;-58
2023/07/16 11:32:38;;;;;;;5.33;2.60;;;27.50;37.20;;;;;;5054241;28;20869;-58
2023/07/16 11:35:07;;;;;;;2.50;2.30;;;27.60;37.00;;;;;;5053345;28;20448;-58
2023/07/16 11:37:37;;;;;;;2.53;2.30;;;27.80;36.80;;;;;;5053490;28;20949;-58
2023/07/16 11:40:05;;;;;;;3.17;2.50;;;28.10;36.50;;;;;;5054695;28;20459;-58
2023/07/16 11:42:34;;;;;;;6.00;2.77;;;28.20;36.10;;;;;;5082168;22;20491;-57
2023/07/16 11:45:01;;;;;;;3.90;2.90;;;28.30;36.00;;;;;;5074678;28;20512;-58
2023/07/16 11:47:28;;;;;;;3.93;2.60;;;28.30;35.80;;;;;;5075325;28;20450;-58
2023/07/16 11:49:56;;;;;;;2.97;2.30;;;28.30;35.50;;;;;;5074772;28;20442;-58
2023/07/16 11:52:25;;;;;;;6.10;2.70;;;28.30;35.20;;;;;;5073771;28;21015;-57
2023/07/16 11:54:54;;;;;;;3.37;2.50;;;28.30;35.10;;;;;;5075301;28;20809;-57
2023/07/16 11:57:21;;;;;;;3.90;2.67;;;28.10;35.20;;;;;;5074488;28;20827;-58
2023/07/16 11:59:48;;;;;;;3.10;2.80;;;28.10;35.10;;;;;;5074118;28;20440;-57
2023/07/16 12:02:15;;;;;;;3.50;2.50;;;28.30;35.00;;;;;;5074712;28;20459;-59
2023/07/16 12:04:41;;;;;;;3.27;2.30;;;28.70;34.50;;;;;;5074926;28;20446;-56
2023/07/16 12:07:08;;;;;;;3.50;2.63;;;29.20;33.90;;;;;;5074658;28;20439;-58
2023/07/16 12:09:35;;;;;;;3.97;2.87;;;29.20;33.40;;;;;;5075095;28;20450;-57
2023/07/16 12:12:04;;;;;;;2.50;2.30;;;28.90;34.30;;;;;;5075616;28;20443;-57
2023/07/16 12:14:31;;;;;;;4.77;3.50;;;29.00;33.70;;;;;;5075594;28;20455;-58
2023/07/16 12:16:58;;;;;;;3.90;2.80;;;29.10;33.70;;;;;;5075081;28;20455;-58
2023/07/16 12:19:25;;;;;;;5.77;2.90;;;29.40;33.60;;;;;;5075022;28;20535;-58
2023/07/16 12:21:52;;;;;;;4.00;3.37;;;29.60;33.10;;;;;;5074962;28;20963;-57
2023/07/16 12:24:19;;;;;;;5.63;2.80;;;29.80;32.80;;;;;;5074328;28;20801;-58
2023/07/16 12:26:46;;;;;;;5.23;2.30;;;30.10;32.50;;;;;;5074953;28;20524;-59
2023/07/16 12:29:14;;;;;;;4.13;2.80;;;30.40;32.00;;;;;;5074546;28;20945;-58
2023/07/16 12:31:41;;;;;;;6.13;3.60;;;30.60;32.30;;;;;;5075780;28;20439;-58
2023/07/16 12:34:08;;;;;;;3.20;2.60;;;30.80;31.20;;;;;;5079092;28;20490;-58
2023/07/16 12:36:34;;;;;;;3.10;2.27;;;30.90;30.90;;;;;;5080307;28;20444;-57
2023/07/16 12:39:01;;;;;;;3.60;2.90;;;30.80;30.80;;;;;;5085225;28;20436;-58
2023/07/16 12:41:28;;;;;;;3.40;2.50;;;30.70;31.00;;;;;;5085388;28;20439;-58
2023/07/16 12:43:55;;;;;;;6.30;2.57;;;30.60;31.20;;;;;;5082151;28;20467;-57
2023/07/16 12:46:23;;;;;;;4.20;2.53;;;30.50;31.40;;;;;;5084642;28;20467;-57
2023/07/16 12:48:50;;;;;;;5.17;2.43;;;30.20;31.70;;;;;;5081820;28;20446;-57
2023/07/16 12:51:17;;;;;;;3.43;2.33;;;29.80;32.40;;;;;;5078246;28;20446;-58